createdAt,value
2022-11-19T00:01:20.346Z,8.40
2022-11-19T00:03:52.183Z,8.40
2022-11-19T00:06:22.698Z,8.40
2022-11-19T00:08:49.762Z,8.50
2022-11-19T00:11:41.185Z,8.60
2022-11-19T00:14:09.425Z,8.60
2022-11-19T00:16:36.496Z,8.70
2022-11-19T00:19:03.629Z,8.60
2022-11-19T00:21:30.408Z,8.60
2022-11-19T00:23:57.645Z,8.70
2022-11-19T00:26:24.978Z,8.60
2022-11-19T00:28:52.235Z,8.60
2022-11-19T00:31:19.026Z,8.60
2022-11-19T00:33:46.836Z,8.60
2022-11-19T00:36:15.344Z,8.60
2022-11-19T00:38:42.616Z,8.70
2022-11-19T00:41:10.494Z,8.60
2022-11-19T00:43:46.924Z,8.40
2022-11-19T00:46:24.850Z,8.40
2022-11-19T00:48:53.860Z,8.40
2022-11-19T00:51:22.431Z,8.40
2022-11-19T00:53:49.232Z,8.40
2022-11-19T00:56:18.762Z,8.40
2022-11-19T00:58:46.869Z,8.30
2022-11-19T01:01:15.010Z,8.30
2022-11-19T01:03:42.711Z,8.30
2022-11-19T01:06:10.311Z,8.20
2022-11-19T01:08:37.340Z,8.40
2022-11-19T01:11:34.450Z,8.50
2022-11-19T01:14:01.663Z,8.50
2022-11-19T01:16:30.172Z,8.50
2022-11-19T01:18:57.444Z,8.40
2022-11-19T01:21:26.444Z,8.40
2022-11-19T01:23:53.839Z,8.30
2022-11-19T01:26:21.015Z,8.30
2022-11-19T01:28:49.052Z,8.20
2022-11-19T01:31:19.654Z,8.20
2022-11-19T01:33:47.259Z,8.30
2022-11-19T01:36:17.723Z,8.30
2022-11-19T01:38:50.578Z,8.40
2022-11-19T01:41:24.366Z,8.60
2022-11-19T01:43:53.847Z,8.40
2022-11-19T01:46:26.106Z,8.40
2022-11-19T01:48:55.611Z,8.20
2022-11-19T01:51:25.234Z,8.20
2022-11-19T01:53:57.913Z,8.30
2022-11-19T01:56:25.999Z,8.30
2022-11-19T01:58:58.870Z,8.30
2022-11-19T02:01:27.711Z,8.30
2022-11-19T02:03:54.676Z,8.40
2022-11-19T02:06:21.762Z,8.40
2022-11-19T02:08:50.613Z,8.30
2022-11-19T02:11:45.508Z,8.30
2022-11-19T02:14:55.359Z,8.40
2022-11-19T02:17:37.000Z,8.40
2022-11-19T02:20:32.569Z,8.30
2022-11-19T02:23:30.452Z,8.30
2022-11-19T02:26:09.671Z,8.40
2022-11-19T02:28:42.437Z,8.40
2022-11-19T02:31:19.220Z,8.40
2022-11-19T02:33:54.300Z,8.60
2022-11-19T02:36:39.121Z,8.40
2022-11-19T02:39:25.283Z,8.60
2022-11-19T02:42:21.323Z,8.70
2022-11-19T02:45:41.361Z,8.60
2022-11-19T02:48:23.090Z,8.40
2022-11-19T02:50:54.328Z,8.40
2022-11-19T02:53:22.452Z,8.40
2022-11-19T02:56:08.802Z,8.50
2022-11-19T02:59:02.297Z,8.50
2022-11-19T03:01:51.831Z,8.30
2022-11-19T03:04:32.596Z,8.30
2022-11-19T03:07:26.176Z,8.30
2022-11-19T03:09:58.486Z,8.40
2022-11-19T03:12:36.320Z,8.30
2022-11-19T03:15:29.723Z,8.30
2022-11-19T03:18:07.071Z,8.20
2022-11-19T03:20:52.766Z,8.30
2022-11-19T03:23:27.456Z,8.10
2022-11-19T03:25:59.649Z,8.20
2022-11-19T03:28:32.640Z,8.10
2022-11-19T03:31:00.527Z,8.10
2022-11-19T03:33:33.313Z,8.20
2022-11-19T03:36:06.133Z,8.20
2022-11-19T03:38:37.118Z,8.20
2022-11-19T03:41:06.556Z,8.20
2022-11-19T03:43:38.361Z,8.00
2022-11-19T03:46:11.271Z,8.00
2022-11-19T03:48:40.234Z,8.00
2022-11-19T03:51:16.247Z,8.00
2022-11-19T03:53:43.154Z,8.00
2022-11-19T03:56:17.847Z,8.00
2022-11-19T03:58:47.486Z,8.00
2022-11-19T04:01:14.512Z,8.10
2022-11-19T04:04:01.412Z,8.00
2022-11-19T04:06:28.132Z,8.00
2022-11-19T04:08:54.759Z,8.00
2022-11-19T04:13:47.246Z,7.90
2022-11-19T04:16:14.277Z,7.90
2022-11-19T04:18:40.940Z,7.90
2022-11-19T04:21:07.978Z,7.80
2022-11-19T04:23:35.006Z,7.90
2022-11-19T04:26:01.657Z,8.00
2022-11-19T04:28:28.694Z,8.00
2022-11-19T04:30:55.333Z,7.90
2022-11-19T04:33:22.383Z,7.80
2022-11-19T04:35:49.027Z,7.80
2022-11-19T04:38:15.780Z,7.90
2022-11-19T04:40:42.753Z,7.90
2022-11-19T04:43:09.753Z,8.10
2022-11-19T04:45:36.614Z,8.10
2022-11-19T04:48:03.560Z,8.10
2022-11-19T04:50:31.329Z,8.00
2022-11-19T04:53:00.043Z,8.20
2022-11-19T04:55:27.070Z,8.10
2022-11-19T04:57:54.139Z,8.00
2022-11-19T05:00:20.899Z,8.00
2022-11-19T05:02:47.770Z,8.10
2022-11-19T05:05:14.457Z,8.10
2022-11-19T05:07:41.497Z,8.10
2022-11-19T05:10:09.002Z,8.10
2022-11-19T05:12:36.126Z,8.10
2022-11-19T05:15:04.340Z,8.10
2022-11-19T05:17:31.433Z,8.00
2022-11-19T05:20:00.138Z,8.10
2022-11-19T05:22:27.045Z,8.10
2022-11-19T05:24:54.098Z,7.90
2022-11-19T05:27:21.159Z,7.90
2022-11-19T05:29:48.207Z,8.00
2022-11-19T05:32:15.276Z,8.00
2022-11-19T05:34:42.303Z,8.00
2022-11-19T05:37:09.356Z,8.20
2022-11-19T05:39:36.408Z,8.20
2022-11-19T05:42:03.435Z,8.30
2022-11-19T05:44:30.800Z,8.20
2022-11-19T05:46:59.663Z,8.10
2022-11-19T05:49:26.836Z,8.10
2022-11-19T05:51:53.825Z,8.00
2022-11-19T05:54:20.848Z,8.00
2022-11-19T05:56:47.773Z,7.90
2022-11-19T05:59:15.501Z,8.00
2022-11-19T06:01:42.365Z,8.00
2022-11-19T06:04:11.016Z,8.10
2022-11-19T06:06:38.229Z,8.10
2022-11-19T06:09:05.235Z,8.20
2022-11-19T06:11:50.564Z,8.20
2022-11-19T06:14:25.491Z,8.20
2022-11-19T06:16:54.881Z,8.20
2022-11-19T06:19:22.544Z,8.00
2022-11-19T06:21:50.335Z,7.90
2022-11-19T06:24:17.755Z,7.90
2022-11-19T06:26:45.540Z,8.00
2022-11-19T06:29:16.927Z,7.90
2022-11-19T06:31:44.839Z,8.00
2022-11-19T06:34:11.883Z,8.10
2022-11-19T06:36:42.716Z,8.30
2022-11-19T06:39:11.839Z,8.20
2022-11-19T06:41:38.949Z,8.20
2022-11-19T06:44:05.911Z,8.20
2022-11-19T06:46:32.591Z,8.20
2022-11-19T06:49:00.440Z,8.10
2022-11-19T06:51:27.532Z,8.20
2022-11-19T06:53:55.327Z,8.30
2022-11-19T06:56:21.981Z,8.30
2022-11-19T06:58:49.185Z,8.20
2022-11-19T07:01:15.937Z,8.20
2022-11-19T07:03:43.036Z,8.20
2022-11-19T07:06:09.883Z,8.20
2022-11-19T07:08:37.749Z,8.10
2022-11-19T07:11:25.308Z,8.10
2022-11-19T07:13:58.080Z,8.10
2022-11-19T07:16:26.741Z,8.30
2022-11-19T07:18:54.302Z,8.40
2022-11-19T07:21:21.176Z,8.50
2022-11-19T07:23:49.051Z,8.60
2022-11-19T07:26:16.165Z,8.70
2022-11-19T07:28:43.133Z,8.80
2022-11-19T07:31:09.911Z,8.90
2022-11-19T07:33:39.140Z,8.90
2022-11-19T07:36:07.531Z,8.90
2022-11-19T07:38:37.060Z,9.10
2022-11-19T07:41:23.908Z,9.20
2022-11-19T07:43:50.941Z,9.10
2022-11-19T07:46:17.604Z,9.10
2022-11-19T07:48:44.465Z,9.10
2022-11-19T07:51:11.651Z,9.10
2022-11-19T07:53:38.667Z,9.10
2022-11-19T07:56:05.766Z,9.00
2022-11-19T07:58:32.758Z,9.20
2022-11-19T08:01:06.663Z,9.40
2022-11-19T08:03:34.603Z,9.40
2022-11-19T08:06:04.702Z,9.40
2022-11-19T08:08:32.785Z,9.50
2022-11-19T08:11:09.905Z,9.60
2022-11-19T08:13:37.538Z,9.50
2022-11-19T08:16:09.789Z,9.40
2022-11-19T08:18:36.972Z,9.60
2022-11-19T08:21:11.504Z,9.70
2022-11-19T08:23:39.041Z,9.70
2022-11-19T08:26:09.365Z,9.60
2022-11-19T08:28:36.193Z,9.70
2022-11-19T08:31:07.662Z,9.50
2022-11-19T08:33:34.736Z,9.60
2022-11-19T08:36:01.509Z,9.70
2022-11-19T08:38:28.525Z,9.50
2022-11-19T08:41:15.820Z,9.20
2022-11-19T08:43:42.736Z,9.20
2022-11-19T08:46:09.664Z,9.20
2022-11-19T08:48:36.805Z,9.10
2022-11-19T08:51:10.119Z,9.20
2022-11-19T08:53:37.165Z,9.20
2022-11-19T08:56:05.280Z,9.20
2022-11-19T08:58:32.522Z,9.40
2022-11-19T09:00:59.433Z,9.50
2022-11-19T09:03:26.371Z,9.60
2022-11-19T09:06:00.438Z,9.70
2022-11-19T09:08:27.255Z,9.70
2022-11-19T09:10:55.371Z,9.80
2022-11-19T09:13:22.406Z,10.00
2022-11-19T09:15:50.963Z,9.90
2022-11-19T09:18:18.132Z,9.90
2022-11-19T09:20:45.225Z,9.90
2022-11-19T09:23:12.198Z,9.80
2022-11-19T09:25:40.129Z,9.90
2022-11-19T09:28:07.104Z,9.80
2022-11-19T09:30:34.834Z,9.90
2022-11-19T09:33:01.603Z,10.00
2022-11-19T09:35:28.660Z,10.20
2022-11-19T09:37:55.697Z,10.20
2022-11-19T09:40:23.630Z,10.40
2022-11-19T09:43:15.633Z,10.60
2022-11-19T09:46:01.547Z,10.80
2022-11-19T09:48:36.540Z,10.80
2022-11-19T09:51:12.498Z,10.90
2022-11-19T09:53:42.207Z,11.00
2022-11-19T09:56:15.208Z,11.10
2022-11-19T09:58:43.748Z,11.10
2022-11-19T10:01:15.416Z,11.10
2022-11-19T10:03:48.339Z,11.10
2022-11-19T10:06:15.147Z,11.00
2022-11-19T10:09:19.490Z,11.00
2022-11-19T10:11:49.525Z,11.00
2022-11-19T10:14:35.500Z,10.90
2022-11-19T10:17:21.287Z,10.80
2022-11-19T10:20:07.915Z,10.60
2022-11-19T10:22:39.453Z,10.60
2022-11-19T10:25:17.346Z,10.10
2022-11-19T10:27:51.549Z,10.10
2022-11-19T10:30:22.351Z,10.20
2022-11-19T10:33:07.509Z,10.30
2022-11-19T10:35:40.568Z,10.30
2022-11-19T10:38:17.711Z,10.50
2022-11-19T10:40:50.800Z,10.50
2022-11-19T10:43:39.804Z,10.60
2022-11-19T10:46:10.598Z,10.80
2022-11-19T10:48:50.599Z,10.80
2022-11-19T10:51:22.602Z,10.80
2022-11-19T10:53:51.370Z,10.80
2022-11-19T10:56:24.496Z,10.90
2022-11-19T10:59:03.497Z,10.80
2022-11-19T11:01:36.660Z,10.50
2022-11-19T11:04:25.549Z,10.20
2022-11-19T11:06:58.179Z,9.70
2022-11-19T11:09:31.016Z,9.60
2022-11-19T11:12:38.227Z,9.60
2022-11-19T11:15:25.630Z,9.50
2022-11-19T11:18:10.160Z,9.20
2022-11-19T11:20:38.748Z,9.10
2022-11-19T11:23:08.852Z,9.00
2022-11-19T11:25:36.689Z,8.80
2022-11-19T11:28:16.782Z,8.80
2022-11-19T11:30:57.207Z,8.60
2022-11-19T11:33:37.614Z,8.50
2022-11-19T11:36:16.628Z,8.50
2022-11-19T11:39:04.491Z,8.40
2022-11-19T11:44:34.730Z,8.30
2022-11-19T11:47:15.600Z,8.30
2022-11-19T11:50:14.496Z,8.20
2022-11-19T11:52:46.764Z,8.00
2022-11-19T11:55:31.750Z,7.90
2022-11-19T11:58:02.818Z,7.90
2022-11-19T12:00:42.773Z,7.90
2022-11-19T12:03:11.438Z,7.80
2022-11-19T12:06:03.725Z,7.60
2022-11-19T12:08:54.525Z,7.70
2022-11-19T12:11:27.223Z,7.70
2022-11-19T12:14:12.129Z,7.70
2022-11-19T12:16:57.017Z,7.80
2022-11-19T12:19:44.034Z,7.80
2022-11-19T12:22:29.625Z,7.70
2022-11-19T12:25:06.169Z,7.80
2022-11-19T12:27:56.519Z,7.60
2022-11-19T12:30:25.777Z,7.80
2022-11-19T12:33:16.722Z,7.60
2022-11-19T12:36:06.615Z,7.60
2022-11-19T12:38:42.326Z,7.50
2022-11-19T12:41:27.753Z,7.40
2022-11-19T12:43:59.333Z,7.30
2022-11-19T12:47:03.768Z,7.30
2022-11-19T12:49:34.535Z,7.20
2022-11-19T12:52:39.691Z,7.30
2022-11-19T12:55:26.652Z,7.20
2022-11-19T12:58:32.617Z,7.00
2022-11-19T13:01:03.608Z,6.90
2022-11-19T13:03:43.084Z,7.00
2022-11-19T13:06:18.043Z,6.90
2022-11-19T13:08:51.747Z,6.70
2022-11-19T13:11:42.322Z,6.80
2022-11-19T13:14:55.151Z,6.70
2022-11-19T13:17:26.192Z,6.60
2022-11-19T13:20:25.738Z,6.50
2022-11-19T13:22:57.455Z,6.50
2022-11-19T13:25:31.823Z,6.30
2022-11-19T13:28:01.873Z,6.50
2022-11-19T13:30:29.973Z,6.50
2022-11-19T13:33:02.882Z,6.50
2022-11-19T13:35:51.516Z,6.60
2022-11-19T13:38:44.873Z,6.60
2022-11-19T13:41:14.773Z,6.50
2022-11-19T13:44:00.283Z,6.40
2022-11-19T13:46:51.939Z,6.50
2022-11-19T13:49:19.008Z,6.50
2022-11-19T13:51:50.723Z,6.50
2022-11-19T13:54:33.760Z,6.30
2022-11-19T13:57:01.574Z,6.20
2022-11-19T13:59:37.991Z,6.30
2022-11-19T14:02:19.563Z,6.20
2022-11-19T14:05:16.886Z,6.30
2022-11-19T14:07:54.175Z,6.10
2022-11-19T14:10:26.931Z,6.10
2022-11-19T14:13:06.736Z,6.10
2022-11-19T14:16:15.068Z,5.90
2022-11-19T14:19:04.222Z,5.80
2022-11-19T14:21:49.514Z,5.70
2022-11-19T14:24:45.723Z,5.70
2022-11-19T14:27:27.108Z,5.60
2022-11-19T14:30:05.213Z,5.70
2022-11-19T14:32:42.717Z,5.70
2022-11-19T14:35:32.325Z,5.90
2022-11-19T14:38:18.806Z,5.70
2022-11-19T14:40:46.424Z,5.90
2022-11-19T14:43:34.854Z,6.00
2022-11-19T14:46:04.590Z,6.20
2022-11-19T14:48:38.804Z,6.30
2022-11-19T14:51:10.787Z,6.30
2022-11-19T14:53:48.365Z,6.10
2022-11-19T14:56:17.098Z,6.00
2022-11-19T14:59:21.947Z,5.90
2022-11-19T15:02:16.874Z,6.10
2022-11-19T15:05:04.221Z,6.30
2022-11-19T15:07:36.435Z,6.30
2022-11-19T15:10:10.247Z,6.40
2022-11-19T15:12:43.320Z,6.30
2022-11-19T15:15:33.892Z,6.30
2022-11-19T15:18:01.962Z,6.20
2022-11-19T15:21:02.916Z,6.00
2022-11-19T15:24:12.738Z,5.90
2022-11-19T15:26:57.985Z,5.90
2022-11-19T15:29:43.080Z,5.90
2022-11-19T15:32:42.423Z,5.80
2022-11-19T15:35:15.093Z,5.70
2022-11-19T15:37:48.011Z,5.80
2022-11-19T15:40:22.486Z,5.60
2022-11-19T15:42:59.148Z,5.70
2022-11-19T15:45:30.147Z,5.80
2022-11-19T15:48:23.544Z,5.90
2022-11-19T15:50:51.172Z,5.90
2022-11-19T15:53:23.821Z,5.80
2022-11-19T15:56:05.852Z,5.80
2022-11-19T15:58:45.213Z,5.90
2022-11-19T16:01:24.503Z,5.90
2022-11-19T16:03:53.669Z,5.90
2022-11-19T16:06:21.961Z,5.90
2022-11-19T16:08:56.076Z,5.80
2022-11-19T16:11:45.234Z,5.80
2022-11-19T16:14:42.401Z,5.70
2022-11-19T16:17:39.870Z,5.50
2022-11-19T16:20:12.370Z,5.50
2022-11-19T16:22:41.035Z,5.60
2022-11-19T16:25:13.549Z,5.40
2022-11-19T16:27:44.936Z,5.40
2022-11-19T16:30:23.646Z,5.50
2022-11-19T16:32:50.932Z,5.70
2022-11-19T16:35:22.532Z,5.50
2022-11-19T16:37:49.687Z,5.60
2022-11-19T16:40:18.207Z,5.70
2022-11-19T16:42:51.737Z,5.60
2022-11-19T16:45:30.179Z,5.80
2022-11-19T16:47:59.489Z,5.60
2022-11-19T16:50:32.120Z,5.50
2022-11-19T16:53:00.859Z,5.40
2022-11-19T16:55:31.635Z,5.50
2022-11-19T16:58:10.196Z,5.40
2022-11-19T17:00:37.799Z,5.50
2022-11-19T17:03:23.818Z,5.50
2022-11-19T17:05:52.582Z,5.60
2022-11-19T17:08:31.298Z,5.50
2022-11-19T17:11:34.052Z,5.50
2022-11-19T17:14:18.717Z,5.30
2022-11-19T17:16:50.932Z,5.30
2022-11-19T17:19:31.519Z,5.30
2022-11-19T17:22:17.995Z,5.30
2022-11-19T17:24:46.443Z,5.40
2022-11-19T17:27:37.767Z,5.50
2022-11-19T17:30:09.183Z,5.40
2022-11-19T17:32:45.609Z,5.50
2022-11-19T17:35:38.962Z,5.20
2022-11-19T17:38:30.736Z,5.10
2022-11-19T17:41:02.687Z,5.20
2022-11-19T17:43:56.577Z,5.20
2022-11-19T17:46:25.793Z,5.20
2022-11-19T17:48:53.481Z,5.20
2022-11-19T17:51:22.793Z,5.30
2022-11-19T17:53:51.708Z,5.00
2022-11-19T17:56:30.047Z,4.90
2022-11-19T17:58:59.547Z,4.80
2022-11-19T18:01:26.886Z,5.00
2022-11-19T18:03:54.025Z,5.00
2022-11-19T18:06:21.106Z,5.20
2022-11-19T18:08:48.161Z,5.40
2022-11-19T18:11:23.577Z,5.30
2022-11-19T18:13:54.830Z,5.00
2022-11-19T18:16:24.078Z,4.90
2022-11-19T18:18:51.288Z,4.70
2022-11-19T18:21:20.825Z,4.80
2022-11-19T18:23:49.192Z,4.80
2022-11-19T18:26:18.859Z,4.70
2022-11-19T18:28:48.866Z,4.90
2022-11-19T18:31:19.061Z,5.10
2022-11-19T18:33:47.956Z,5.00
2022-11-19T18:36:15.600Z,4.80
2022-11-19T18:38:43.111Z,4.80
2022-11-19T18:41:11.281Z,4.90
2022-11-19T18:43:57.048Z,4.90
2022-11-19T18:46:24.176Z,4.80
2022-11-19T18:48:51.049Z,4.80
2022-11-19T18:51:17.974Z,4.70
2022-11-19T18:53:45.122Z,4.60
2022-11-19T18:56:15.988Z,4.70
2022-11-19T18:58:42.958Z,4.90
2022-11-19T19:01:10.028Z,5.10
2022-11-19T19:03:37.024Z,5.00
2022-11-19T19:06:05.647Z,5.10
2022-11-19T19:08:33.258Z,5.20
2022-11-19T19:11:23.313Z,5.10
2022-11-19T19:13:50.348Z,4.90
2022-11-19T19:16:17.049Z,5.10
2022-11-19T19:18:44.204Z,4.90
2022-11-19T19:21:15.760Z,5.00
2022-11-19T19:23:42.782Z,5.10
2022-11-19T19:26:11.419Z,5.10
2022-11-19T19:28:38.816Z,5.30
2022-11-19T19:31:06.122Z,5.20
2022-11-19T19:33:33.211Z,5.30
2022-11-19T19:36:03.089Z,5.30
2022-11-19T19:38:29.989Z,5.00
2022-11-19T19:41:06.580Z,5.10
2022-11-19T19:43:33.624Z,5.00
2022-11-19T19:46:08.983Z,5.10
2022-11-19T19:48:36.416Z,5.00
2022-11-19T19:51:04.507Z,4.80
2022-11-19T19:53:31.637Z,4.90
2022-11-19T19:56:19.586Z,5.00
2022-11-19T19:58:49.406Z,5.00
2022-11-19T20:01:27.632Z,4.90
2022-11-19T20:04:00.419Z,4.90
2022-11-19T20:06:27.493Z,5.00
2022-11-19T20:08:54.295Z,4.80
2022-11-19T20:11:26.270Z,4.80
2022-11-19T20:13:54.836Z,4.60
2022-11-19T20:16:27.385Z,4.60
2022-11-19T20:18:55.466Z,4.50
2022-11-19T20:21:31.689Z,4.40
2022-11-19T20:23:58.828Z,4.40
2022-11-19T20:26:27.955Z,4.30
2022-11-19T20:29:00.366Z,4.50
2022-11-19T20:31:28.975Z,4.70
2022-11-19T20:34:01.387Z,4.70
2022-11-19T20:36:30.216Z,4.80
2022-11-19T20:39:00.480Z,4.80
2022-11-19T20:41:51.060Z,4.90
2022-11-19T20:44:22.225Z,5.00
2022-11-19T20:46:53.803Z,4.80
2022-11-19T20:49:24.378Z,4.80
2022-11-19T20:51:52.836Z,5.00
2022-11-19T20:54:21.355Z,5.00
2022-11-19T20:56:51.001Z,5.00
2022-11-19T20:59:18.894Z,5.00
2022-11-19T21:01:47.340Z,4.70
2022-11-19T21:04:14.250Z,4.60
2022-11-19T21:06:41.265Z,4.70
2022-11-19T21:09:08.926Z,4.50
2022-11-19T21:11:35.829Z,4.50
2022-11-19T21:14:03.316Z,4.70
2022-11-19T21:16:30.662Z,4.70
2022-11-19T21:18:58.000Z,4.70
2022-11-19T21:21:25.136Z,4.70
2022-11-19T21:23:53.413Z,4.70
2022-11-19T21:26:22.953Z,4.50
2022-11-19T21:28:52.293Z,4.50
2022-11-19T21:31:22.689Z,4.50
2022-11-19T21:33:49.442Z,4.70
2022-11-19T21:36:16.513Z,4.70
2022-11-19T21:38:43.636Z,4.60
2022-11-19T21:41:10.580Z,4.70
2022-11-19T21:43:37.621Z,4.50
2022-11-19T21:46:07.778Z,4.50
2022-11-19T21:48:38.068Z,4.60
2022-11-19T21:51:08.541Z,4.60
2022-11-19T21:53:36.074Z,4.70
2022-11-19T21:56:03.735Z,4.60
2022-11-19T21:58:30.541Z,4.40
2022-11-19T22:00:59.524Z,4.50
2022-11-19T22:03:28.357Z,4.50
2022-11-19T22:06:03.823Z,4.60
2022-11-19T22:08:32.336Z,4.60
2022-11-19T22:10:59.774Z,4.60
2022-11-19T22:13:27.065Z,4.50
2022-11-19T22:16:02.662Z,4.50
2022-11-19T22:18:29.461Z,4.50
2022-11-19T22:21:02.800Z,4.60
2022-11-19T22:23:29.780Z,4.50
2022-11-19T22:25:56.764Z,4.60
2022-11-19T22:28:23.771Z,4.60
2022-11-19T22:30:54.274Z,4.30
2022-11-19T22:33:21.340Z,4.30
2022-11-19T22:35:48.334Z,4.40
2022-11-19T22:38:16.071Z,4.40
2022-11-19T22:40:42.930Z,4.50
2022-11-19T22:43:09.735Z,4.40
2022-11-19T22:45:36.851Z,4.60
2022-11-19T22:48:03.967Z,4.60
2022-11-19T22:50:30.850Z,4.70
2022-11-19T22:52:57.524Z,4.80
2022-11-19T22:55:24.562Z,4.90
2022-11-19T22:57:51.590Z,4.90
2022-11-19T23:00:44.962Z,4.90
2022-11-19T23:03:12.527Z,4.90
2022-11-19T23:05:40.710Z,5.00
2022-11-19T23:08:10.190Z,5.00
2022-11-19T23:10:37.173Z,4.90
2022-11-19T23:13:22.978Z,5.10
2022-11-19T23:16:12.294Z,5.10
2022-11-19T23:18:46.832Z,5.40
2022-11-19T23:21:16.786Z,5.40
2022-11-19T23:23:43.671Z,5.20
2022-11-19T23:26:12.351Z,5.10
2022-11-19T23:28:39.402Z,5.00
2022-11-19T23:31:08.899Z,4.90
2022-11-19T23:33:36.436Z,5.00
2022-11-19T23:36:10.339Z,5.00
2022-11-19T23:38:38.721Z,5.00
2022-11-19T23:41:08.267Z,5.20
2022-11-19T23:43:35.966Z,5.30
2022-11-19T23:46:10.011Z,5.30
2022-11-19T23:48:38.544Z,5.30
2022-11-19T23:51:11.768Z,5.30
2022-11-19T23:53:38.896Z,5.30
2022-11-19T23:56:06.780Z,5.30
2022-11-19T23:58:34.632Z,5.40
